sensor_id;sensor_type;location;lat;lon;timestamp;P1;durP1;ratioP1;P2;durP2;ratioP2
41077;SDS011;26823;42.662;23.352;2024-03-17T00:01:04;29.17;;;15.82;;
41077;SDS011;26823;42.662;23.352;2024-03-17T00:03:30;27.42;;;15.63;;
41077;SDS011;26823;42.662;23.352;2024-03-17T00:05:59;23.95;;;14.35;;
41077;SDS011;26823;42.662;23.352;2024-03-17T00:08:25;25.30;;;15.35;;
41077;SDS011;26823;42.662;23.352;2024-03-17T00:10:54;26.70;;;14.75;;
41077;SDS011;26823;42.662;23.352;2024-03-17T00:13:20;26.42;;;15.68;;
41077;SDS011;26823;42.662;23.352;2024-03-17T00:15:49;24.30;;;16.38;;
41077;SDS011;26823;42.662;23.352;2024-03-17T00:18:16;33.13;;;16.85;;
41077;SDS011;26823;42.662;23.352;2024-03-17T00:20:42;28.92;;;16.90;;
41077;SDS011;26823;42.662;23.352;2024-03-17T00:23:08;25.73;;;16.05;;
41077;SDS011;26823;42.662;23.352;2024-03-17T00:25:36;28.70;;;16.67;;
41077;SDS011;26823;42.662;23.352;2024-03-17T00:28:03;27.98;;;17.20;;
41077;SDS011;26823;42.662;23.352;2024-03-17T00:30:29;29.67;;;17.88;;
41077;SDS011;26823;42.662;23.352;2024-03-17T00:32:54;31.75;;;17.27;;
41077;SDS011;26823;42.662;23.352;2024-03-17T00:35:20;31.85;;;18.13;;
41077;SDS011;26823;42.662;23.352;2024-03-17T00:37:48;29.27;;;17.77;;
41077;SDS011;26823;42.662;23.352;2024-03-17T00:40:15;30.13;;;17.77;;
41077;SDS011;26823;42.662;23.352;2024-03-17T00:42:44;30.23;;;17.83;;
41077;SDS011;26823;42.662;23.352;2024-03-17T00:45:12;29.20;;;17.35;;
41077;SDS011;26823;42.662;23.352;2024-03-17T00:47:38;30.35;;;17.50;;
41077;SDS011;26823;42.662;23.352;2024-03-17T00:50:04;27.02;;;17.15;;
41077;SDS011;26823;42.662;23.352;2024-03-17T00:52:32;33.25;;;19.00;;
41077;SDS011;26823;42.662;23.352;2024-03-17T00:54:57;29.50;;;17.88;;
41077;SDS011;26823;42.662;23.352;2024-03-17T00:57:23;29.30;;;16.95;;
41077;SDS011;26823;42.662;23.352;2024-03-17T00:59:49;29.50;;;17.70;;
41077;SDS011;26823;42.662;23.352;2024-03-17T01:02:15;28.85;;;17.90;;
41077;SDS011;26823;42.662;23.352;2024-03-17T01:04:44;30.77;;;18.13;;
41077;SDS011;26823;42.662;23.352;2024-03-17T01:07:10;34.20;;;19.23;;
41077;SDS011;26823;42.662;23.352;2024-03-17T01:09:36;32.70;;;18.67;;
41077;SDS011;26823;42.662;23.352;2024-03-17T01:12:02;32.40;;;18.65;;
41077;SDS011;26823;42.662;23.352;2024-03-17T01:14:29;29.67;;;19.02;;
41077;SDS011;26823;42.662;23.352;2024-03-17T01:16:55;26.27;;;18.65;;
41077;SDS011;26823;42.662;23.352;2024-03-17T01:19:22;28.73;;;19.25;;
41077;SDS011;26823;42.662;23.352;2024-03-17T01:21:48;31.75;;;19.83;;
41077;SDS011;26823;42.662;23.352;2024-03-17T01:24:13;30.27;;;19.73;;
41077;SDS011;26823;42.662;23.352;2024-03-17T01:26:39;30.27;;;19.00;;
41077;SDS011;26823;42.662;23.352;2024-03-17T01:29:04;31.60;;;19.25;;
41077;SDS011;26823;42.662;23.352;2024-03-17T01:31:30;30.02;;;19.13;;
41077;SDS011;26823;42.662;23.352;2024-03-17T01:33:55;34.63;;;21.08;;
41077;SDS011;26823;42.662;23.352;2024-03-17T01:36:21;28.45;;;19.27;;
41077;SDS011;26823;42.662;23.352;2024-03-17T01:38:46;33.72;;;19.85;;
41077;SDS011;26823;42.662;23.352;2024-03-17T01:41:12;33.17;;;19.17;;
41077;SDS011;26823;42.662;23.352;2024-03-17T01:43:38;35.30;;;19.35;;
41077;SDS011;26823;42.662;23.352;2024-03-17T01:46:04;30.75;;;18.33;;
41077;SDS011;26823;42.662;23.352;2024-03-17T01:48:30;28.70;;;18.35;;
41077;SDS011;26823;42.662;23.352;2024-03-17T01:50:56;32.25;;;18.95;;
41077;SDS011;26823;42.662;23.352;2024-03-17T01:53:23;33.50;;;19.35;;
41077;SDS011;26823;42.662;23.352;2024-03-17T01:55:51;29.83;;;18.13;;
41077;SDS011;26823;42.662;23.352;2024-03-17T01:58:23;37.47;;;18.98;;
41077;SDS011;26823;42.662;23.352;2024-03-17T02:00:50;31.40;;;19.27;;
41077;SDS011;26823;42.662;23.352;2024-03-17T02:03:17;28.20;;;18.45;;
41077;SDS011;26823;42.662;23.352;2024-03-17T02:05:43;28.25;;;18.70;;
41077;SDS011;26823;42.662;23.352;2024-03-17T02:08:09;31.05;;;18.67;;
41077;SDS011;26823;42.662;23.352;2024-03-17T02:10:36;31.70;;;18.08;;
41077;SDS011;26823;42.662;23.352;2024-03-17T02:13:02;32.47;;;18.52;;
41077;SDS011;26823;42.662;23.352;2024-03-17T02:15:29;28.45;;;17.92;;
41077;SDS011;26823;42.662;23.352;2024-03-17T02:17:55;30.30;;;18.13;;
41077;SDS011;26823;42.662;23.352;2024-03-17T02:20:20;31.05;;;18.17;;
41077;SDS011;26823;42.662;23.352;2024-03-17T02:22:49;32.72;;;19.48;;
41077;SDS011;26823;42.662;23.352;2024-03-17T02:25:15;28.98;;;16.80;;
41077;SDS011;26823;42.662;23.352;2024-03-17T02:27:40;31.00;;;18.52;;
41077;SDS011;26823;42.662;23.352;2024-03-17T02:30:06;29.13;;;16.67;;
41077;SDS011;26823;42.662;23.352;2024-03-17T02:32:37;29.58;;;17.95;;
41077;SDS011;26823;42.662;23.352;2024-03-17T02:35:03;31.13;;;18.55;;
41077;SDS011;26823;42.662;23.352;2024-03-17T02:37:30;33.13;;;18.83;;
41077;SDS011;26823;42.662;23.352;2024-03-17T02:39:55;26.23;;;17.13;;
41077;SDS011;26823;42.662;23.352;2024-03-17T02:42:21;32.03;;;18.77;;
41077;SDS011;26823;42.662;23.352;2024-03-17T02:44:47;31.95;;;18.90;;
41077;SDS011;26823;42.662;23.352;2024-03-17T02:47:12;30.58;;;18.35;;
41077;SDS011;26823;42.662;23.352;2024-03-17T02:49:39;31.83;;;18.98;;
41077;SDS011;26823;42.662;23.352;2024-03-17T02:52:08;29.17;;;18.23;;
41077;SDS011;26823;42.662;23.352;2024-03-17T02:54:34;31.30;;;19.27;;
41077;SDS011;26823;42.662;23.352;2024-03-17T02:57:01;34.90;;;19.17;;
41077;SDS011;26823;42.662;23.352;2024-03-17T02:59:27;29.45;;;18.85;;
41077;SDS011;26823;42.662;23.352;2024-03-17T03:01:52;29.95;;;18.70;;
41077;SDS011;26823;42.662;23.352;2024-03-17T03:04:18;32.47;;;19.13;;
41077;SDS011;26823;42.662;23.352;2024-03-17T03:06:43;26.45;;;18.08;;
41077;SDS011;26823;42.662;23.352;2024-03-17T03:09:11;32.95;;;19.52;;
41077;SDS011;26823;42.662;23.352;2024-03-17T03:11:41;34.63;;;17.80;;
41077;SDS011;26823;42.662;23.352;2024-03-17T03:14:07;30.33;;;18.63;;
41077;SDS011;26823;42.662;23.352;2024-03-17T03:16:32;33.00;;;19.45;;
41077;SDS011;26823;42.662;23.352;2024-03-17T03:18:58;29.02;;;18.73;;
41077;SDS011;26823;42.662;23.352;2024-03-17T03:21:24;33.85;;;19.13;;
41077;SDS011;26823;42.662;23.352;2024-03-17T03:23:50;30.05;;;18.67;;
41077;SDS011;26823;42.662;23.352;2024-03-17T03:26:16;34.20;;;21.00;;
41077;SDS011;26823;42.662;23.352;2024-03-17T03:28:43;31.08;;;19.08;;
41077;SDS011;26823;42.662;23.352;2024-03-17T03:31:12;37.05;;;19.27;;
41077;SDS011;26823;42.662;23.352;2024-03-17T03:33:41;26.40;;;18.75;;
41077;SDS011;26823;42.662;23.352;2024-03-17T03:36:08;34.50;;;19.52;;
41077;SDS011;26823;42.662;23.352;2024-03-17T03:38:37;31.10;;;19.23;;
41077;SDS011;26823;42.662;23.352;2024-03-17T03:41:09;28.15;;;17.52;;
41077;SDS011;26823;42.662;23.352;2024-03-17T03:43:37;26.88;;;18.25;;
41077;SDS011;26823;42.662;23.352;2024-03-17T03:46:03;33.42;;;17.48;;
41077;SDS011;26823;42.662;23.352;2024-03-17T03:48:29;29.80;;;18.38;;
41077;SDS011;26823;42.662;23.352;2024-03-17T03:50:55;30.77;;;19.45;;
41077;SDS011;26823;42.662;23.352;2024-03-17T03:53:20;31.23;;;19.13;;
41077;SDS011;26823;42.662;23.352;2024-03-17T03:55:46;29.80;;;20.20;;
41077;SDS011;26823;42.662;23.352;2024-03-17T03:58:11;29.67;;;19.17;;
41077;SDS011;26823;42.662;23.352;2024-03-17T04:00:37;29.70;;;18.25;;
41077;SDS011;26823;42.662;23.352;2024-03-17T04:03:04;32.97;;;19.42;;
41077;SDS011;26823;42.662;23.352;2024-03-17T04:05:30;38.47;;;21.50;;
41077;SDS011;26823;42.662;23.352;2024-03-17T04:07:56;35.70;;;19.33;;
41077;SDS011;26823;42.662;23.352;2024-03-17T04:10:23;38.60;;;19.17;;
41077;SDS011;26823;42.662;23.352;2024-03-17T04:12:49;35.35;;;20.13;;
41077;SDS011;26823;42.662;23.352;2024-03-17T04:15:14;34.53;;;19.17;;
41077;SDS011;26823;42.662;23.352;2024-03-17T04:17:40;35.45;;;21.52;;
41077;SDS011;26823;42.662;23.352;2024-03-17T04:20:07;34.45;;;20.48;;
41077;SDS011;26823;42.662;23.352;2024-03-17T04:22:34;33.72;;;19.38;;
41077;SDS011;26823;42.662;23.352;2024-03-17T04:25:00;31.33;;;18.75;;
41077;SDS011;26823;42.662;23.352;2024-03-17T04:27:28;30.40;;;19.48;;
41077;SDS011;26823;42.662;23.352;2024-03-17T04:29:54;30.73;;;19.40;;
41077;SDS011;26823;42.662;23.352;2024-03-17T04:32:20;29.02;;;18.50;;
41077;SDS011;26823;42.662;23.352;2024-03-17T04:34:50;33.45;;;18.98;;
41077;SDS011;26823;42.662;23.352;2024-03-17T04:37:16;28.83;;;17.73;;
41077;SDS011;26823;42.662;23.352;2024-03-17T04:39:45;35.60;;;18.77;;
41077;SDS011;26823;42.662;23.352;2024-03-17T04:42:12;31.13;;;19.10;;
41077;SDS011;26823;42.662;23.352;2024-03-17T04:44:42;32.00;;;19.58;;
41077;SDS011;26823;42.662;23.352;2024-03-17T04:47:10;28.48;;;18.55;;
41077;SDS011;26823;42.662;23.352;2024-03-17T04:49:36;33.00;;;19.80;;
41077;SDS011;26823;42.662;23.352;2024-03-17T04:52:06;29.50;;;19.70;;
41077;SDS011;26823;42.662;23.352;2024-03-17T04:54:34;32.28;;;19.42;;
41077;SDS011;26823;42.662;23.352;2024-03-17T04:57:00;38.95;;;21.58;;
41077;SDS011;26823;42.662;23.352;2024-03-17T04:59:26;33.88;;;20.52;;
41077;SDS011;26823;42.662;23.352;2024-03-17T05:01:52;37.75;;;21.48;;
41077;SDS011;26823;42.662;23.352;2024-03-17T05:04:18;33.10;;;21.23;;
41077;SDS011;26823;42.662;23.352;2024-03-17T05:06:43;40.13;;;21.17;;
41077;SDS011;26823;42.662;23.352;2024-03-17T05:09:18;36.10;;;19.55;;
41077;SDS011;26823;42.662;23.352;2024-03-17T05:11:44;36.38;;;21.55;;
41077;SDS011;26823;42.662;23.352;2024-03-17T05:14:11;40.67;;;21.27;;
41077;SDS011;26823;42.662;23.352;2024-03-17T05:16:37;36.60;;;21.40;;
41077;SDS011;26823;42.662;23.352;2024-03-17T05:19:03;36.05;;;20.48;;
41077;SDS011;26823;42.662;23.352;2024-03-17T05:21:32;34.67;;;21.02;;
41077;SDS011;26823;42.662;23.352;2024-03-17T05:24:00;37.35;;;21.05;;
41077;SDS011;26823;42.662;23.352;2024-03-17T05:26:27;32.45;;;19.15;;
41077;SDS011;26823;42.662;23.352;2024-03-17T05:28:53;31.92;;;19.30;;
41077;SDS011;26823;42.662;23.352;2024-03-17T05:31:19;35.35;;;20.98;;
41077;SDS011;26823;42.662;23.352;2024-03-17T05:33:46;32.03;;;20.02;;
41077;SDS011;26823;42.662;23.352;2024-03-17T05:36:12;36.25;;;21.92;;
41077;SDS011;26823;42.662;23.352;2024-03-17T05:38:37;36.22;;;20.58;;
41077;SDS011;26823;42.662;23.352;2024-03-17T05:41:03;32.88;;;20.60;;
41077;SDS011;26823;42.662;23.352;2024-03-17T05:43:31;35.45;;;20.67;;
41077;SDS011;26823;42.662;23.352;2024-03-17T05:46:06;32.35;;;19.65;;
41077;SDS011;26823;42.662;23.352;2024-03-17T05:48:34;33.22;;;20.73;;
41077;SDS011;26823;42.662;23.352;2024-03-17T05:51:06;31.17;;;20.85;;
41077;SDS011;26823;42.662;23.352;2024-03-17T05:53:32;34.42;;;20.30;;
41077;SDS011;26823;42.662;23.352;2024-03-17T05:55:59;32.22;;;19.77;;
41077;SDS011;26823;42.662;23.352;2024-03-17T05:58:25;37.90;;;21.00;;
41077;SDS011;26823;42.662;23.352;2024-03-17T06:00:51;33.92;;;20.55;;
41077;SDS011;26823;42.662;23.352;2024-03-17T06:03:16;32.65;;;20.17;;
41077;SDS011;26823;42.662;23.352;2024-03-17T06:05:43;30.85;;;20.27;;
41077;SDS011;26823;42.662;23.352;2024-03-17T06:08:12;35.92;;;23.48;;
41077;SDS011;26823;42.662;23.352;2024-03-17T06:10:38;30.83;;;19.02;;
41077;SDS011;26823;42.662;23.352;2024-03-17T06:13:07;28.13;;;18.92;;
41077;SDS011;26823;42.662;23.352;2024-03-17T06:15:37;28.20;;;18.98;;
41077;SDS011;26823;42.662;23.352;2024-03-17T06:18:03;27.80;;;19.52;;
41077;SDS011;26823;42.662;23.352;2024-03-17T06:20:29;30.15;;;20.48;;
41077;SDS011;26823;42.662;23.352;2024-03-17T06:22:55;28.50;;;18.73;;
41077;SDS011;26823;42.662;23.352;2024-03-17T06:25:22;32.25;;;18.90;;
41077;SDS011;26823;42.662;23.352;2024-03-17T06:27:50;26.20;;;17.02;;
41077;SDS011;26823;42.662;23.352;2024-03-17T06:30:16;26.92;;;18.20;;
41077;SDS011;26823;42.662;23.352;2024-03-17T06:32:43;27.33;;;17.45;;
41077;SDS011;26823;42.662;23.352;2024-03-17T06:35:12;27.60;;;18.30;;
41077;SDS011;26823;42.662;23.352;2024-03-17T06:37:40;25.13;;;17.15;;
41077;SDS011;26823;42.662;23.352;2024-03-17T06:40:09;24.05;;;18.15;;
41077;SDS011;26823;42.662;23.352;2024-03-17T06:42:38;26.60;;;17.98;;
41077;SDS011;26823;42.662;23.352;2024-03-17T06:45:04;23.17;;;16.33;;
41077;SDS011;26823;42.662;23.352;2024-03-17T06:47:30;24.77;;;17.42;;
41077;SDS011;26823;42.662;23.352;2024-03-17T06:49:56;23.42;;;17.17;;
41077;SDS011;26823;42.662;23.352;2024-03-17T06:52:21;26.58;;;17.65;;
41077;SDS011;26823;42.662;23.352;2024-03-17T06:54:47;28.20;;;17.23;;
41077;SDS011;26823;42.662;23.352;2024-03-17T06:57:15;20.30;;;16.65;;
41077;SDS011;26823;42.662;23.352;2024-03-17T06:59:40;20.83;;;16.35;;
41077;SDS011;26823;42.662;23.352;2024-03-17T07:02:06;31.60;;;21.08;;
41077;SDS011;26823;42.662;23.352;2024-03-17T07:04:32;26.73;;;17.67;;
41077;SDS011;26823;42.662;23.352;2024-03-17T07:06:57;24.33;;;18.83;;
41077;SDS011;26823;42.662;23.352;2024-03-17T07:09:23;23.05;;;17.20;;
41077;SDS011;26823;42.662;23.352;2024-03-17T07:11:49;25.02;;;18.00;;
41077;SDS011;26823;42.662;23.352;2024-03-17T07:14:14;26.92;;;18.50;;
41077;SDS011;26823;42.662;23.352;2024-03-17T07:16:40;28.63;;;19.58;;
41077;SDS011;26823;42.662;23.352;2024-03-17T07:19:05;24.77;;;17.55;;
41077;SDS011;26823;42.662;23.352;2024-03-17T07:21:30;20.67;;;16.60;;
41077;SDS011;26823;42.662;23.352;2024-03-17T07:23:59;21.95;;;18.58;;
41077;SDS011;26823;42.662;23.352;2024-03-17T07:26:29;23.25;;;17.40;;
41077;SDS011;26823;42.662;23.352;2024-03-17T07:28:55;22.23;;;16.70;;
41077;SDS011;26823;42.662;23.352;2024-03-17T07:31:20;24.55;;;18.80;;
41077;SDS011;26823;42.662;23.352;2024-03-17T07:33:46;28.50;;;18.55;;
41077;SDS011;26823;42.662;23.352;2024-03-17T07:36:11;27.95;;;20.52;;
41077;SDS011;26823;42.662;23.352;2024-03-17T07:38:37;31.92;;;22.33;;
41077;SDS011;26823;42.662;23.352;2024-03-17T07:41:03;28.85;;;19.23;;
41077;SDS011;26823;42.662;23.352;2024-03-17T07:43:37;24.48;;;19.42;;
41077;SDS011;26823;42.662;23.352;2024-03-17T07:46:07;24.15;;;17.88;;
41077;SDS011;26823;42.662;23.352;2024-03-17T07:48:35;28.25;;;17.73;;
41077;SDS011;26823;42.662;23.352;2024-03-17T07:51:06;26.77;;;16.63;;
41077;SDS011;26823;42.662;23.352;2024-03-17T07:53:34;23.60;;;15.82;;
41077;SDS011;26823;42.662;23.352;2024-03-17T07:56:09;21.02;;;13.40;;
41077;SDS011;26823;42.662;23.352;2024-03-17T07:58:38;22.98;;;14.02;;
41077;SDS011;26823;42.662;23.352;2024-03-17T08:01:11;19.33;;;14.32;;
41077;SDS011;26823;42.662;23.352;2024-03-17T08:03:41;20.42;;;14.80;;
41077;SDS011;26823;42.662;23.352;2024-03-17T08:06:09;19.50;;;12.80;;
41077;SDS011;26823;42.662;23.352;2024-03-17T08:08:38;16.70;;;12.07;;
41077;SDS011;26823;42.662;23.352;2024-03-17T08:11:04;16.83;;;12.23;;
41077;SDS011;26823;42.662;23.352;2024-03-17T08:13:31;18.70;;;12.95;;
41077;SDS011;26823;42.662;23.352;2024-03-17T08:16:04;16.92;;;11.45;;
41077;SDS011;26823;42.662;23.352;2024-03-17T08:18:36;18.00;;;12.50;;
41077;SDS011;26823;42.662;23.352;2024-03-17T08:21:02;20.20;;;11.82;;
41077;SDS011;26823;42.662;23.352;2024-03-17T08:23:31;17.88;;;11.82;;
41077;SDS011;26823;42.662;23.352;2024-03-17T08:25:59;18.35;;;11.90;;
41077;SDS011;26823;42.662;23.352;2024-03-17T08:28:25;15.65;;;10.65;;
41077;SDS011;26823;42.662;23.352;2024-03-17T08:33:18;16.13;;;11.25;;
41077;SDS011;26823;42.662;23.352;2024-03-17T08:36:05;14.90;;;10.15;;
41077;SDS011;26823;42.662;23.352;2024-03-17T08:38:32;16.90;;;10.70;;
41077;SDS011;26823;42.662;23.352;2024-03-17T08:41:02;13.38;;;10.95;;
41077;SDS011;26823;42.662;23.352;2024-03-17T08:43:32;14.73;;;10.55;;
41077;SDS011;26823;42.662;23.352;2024-03-17T08:46:02;17.55;;;10.43;;
41077;SDS011;26823;42.662;23.352;2024-03-17T08:48:35;11.65;;;8.88;;
41077;SDS011;26823;42.662;23.352;2024-03-17T08:51:02;14.15;;;9.30;;
41077;SDS011;26823;42.662;23.352;2024-03-17T08:53:29;14.60;;;10.32;;
41077;SDS011;26823;42.662;23.352;2024-03-17T08:55:55;12.75;;;10.85;;
41077;SDS011;26823;42.662;23.352;2024-03-17T08:58:21;15.38;;;10.15;;
41077;SDS011;26823;42.662;23.352;2024-03-17T09:00:46;13.18;;;9.77;;
41077;SDS011;26823;42.662;23.352;2024-03-17T09:03:12;13.57;;;10.27;;
41077;SDS011;26823;42.662;23.352;2024-03-17T09:05:38;16.52;;;10.48;;
41077;SDS011;26823;42.662;23.352;2024-03-17T09:08:06;14.20;;;9.95;;
41077;SDS011;26823;42.662;23.352;2024-03-17T09:10:41;14.32;;;9.68;;
41077;SDS011;26823;42.662;23.352;2024-03-17T09:13:07;12.70;;;10.48;;
41077;SDS011;26823;42.662;23.352;2024-03-17T09:18:21;17.75;;;11.10;;
41077;SDS011;26823;42.662;23.352;2024-03-17T09:20:55;16.15;;;10.48;;
41077;SDS011;26823;42.662;23.352;2024-03-17T09:23:28;14.10;;;11.13;;
41077;SDS011;26823;42.662;23.352;2024-03-17T09:25:57;10.10;;;8.98;;
41077;SDS011;26823;42.662;23.352;2024-03-17T09:28:23;13.57;;;10.32;;
41077;SDS011;26823;42.662;23.352;2024-03-17T09:30:48;12.95;;;10.15;;
41077;SDS011;26823;42.662;23.352;2024-03-17T09:33:14;12.45;;;9.70;;
41077;SDS011;26823;42.662;23.352;2024-03-17T09:35:40;15.13;;;10.20;;
41077;SDS011;26823;42.662;23.352;2024-03-17T09:38:05;11.88;;;10.27;;
41077;SDS011;26823;42.662;23.352;2024-03-17T09:40:32;15.65;;;9.93;;
41077;SDS011;26823;42.662;23.352;2024-03-17T09:42:57;13.00;;;9.65;;
41077;SDS011;26823;42.662;23.352;2024-03-17T09:45:24;10.57;;;8.52;;
41077;SDS011;26823;42.662;23.352;2024-03-17T09:47:50;11.02;;;7.45;;
41077;SDS011;26823;42.662;23.352;2024-03-17T09:50:16;8.80;;;6.53;;
41077;SDS011;26823;42.662;23.352;2024-03-17T09:52:44;8.52;;;7.07;;
41077;SDS011;26823;42.662;23.352;2024-03-17T09:55:13;11.38;;;7.20;;
41077;SDS011;26823;42.662;23.352;2024-03-17T09:57:40;8.75;;;6.50;;
41077;SDS011;26823;42.662;23.352;2024-03-17T10:00:09;5.28;;;4.50;;
41077;SDS011;26823;42.662;23.352;2024-03-17T10:02:44;9.80;;;4.70;;
41077;SDS011;26823;42.662;23.352;2024-03-17T10:05:20;6.78;;;4.75;;
41077;SDS011;26823;42.662;23.352;2024-03-17T10:07:50;6.13;;;5.20;;
41077;SDS011;26823;42.662;23.352;2024-03-17T10:10:16;6.88;;;5.70;;
41077;SDS011;26823;42.662;23.352;2024-03-17T10:12:43;8.52;;;5.32;;
41077;SDS011;26823;42.662;23.352;2024-03-17T10:15:10;8.40;;;6.35;;
41077;SDS011;26823;42.662;23.352;2024-03-17T10:17:37;8.82;;;6.18;;
41077;SDS011;26823;42.662;23.352;2024-03-17T10:20:21;8.80;;;7.13;;
41077;SDS011;26823;42.662;23.352;2024-03-17T10:22:57;9.23;;;6.40;;
41077;SDS011;26823;42.662;23.352;2024-03-17T10:25:30;7.40;;;5.80;;
41077;SDS011;26823;42.662;23.352;2024-03-17T10:27:58;9.60;;;6.60;;
41077;SDS011;26823;42.662;23.352;2024-03-17T10:30:24;7.57;;;5.53;;
41077;SDS011;26823;42.662;23.352;2024-03-17T10:33:01;6.32;;;5.20;;
41077;SDS011;26823;42.662;23.352;2024-03-17T10:35:33;8.60;;;5.57;;
41077;SDS011;26823;42.662;23.352;2024-03-17T10:38:00;6.55;;;5.22;;
41077;SDS011;26823;42.662;23.352;2024-03-17T10:40:27;6.75;;;4.43;;
41077;SDS011;26823;42.662;23.352;2024-03-17T10:42:54;6.60;;;4.72;;
41077;SDS011;26823;42.662;23.352;2024-03-17T10:45:20;4.90;;;4.30;;
41077;SDS011;26823;42.662;23.352;2024-03-17T10:47:50;4.10;;;3.45;;
41077;SDS011;26823;42.662;23.352;2024-03-17T10:50:17;4.07;;;3.60;;
41077;SDS011;26823;42.662;23.352;2024-03-17T10:52:45;3.85;;;3.35;;
41077;SDS011;26823;42.662;23.352;2024-03-17T10:55:19;5.10;;;3.83;;
41077;SDS011;26823;42.662;23.352;2024-03-17T10:57:50;5.00;;;4.00;;
41077;SDS011;26823;42.662;23.352;2024-03-17T11:00:24;4.63;;;3.13;;
41077;SDS011;26823;42.662;23.352;2024-03-17T11:02:54;4.13;;;2.92;;
41077;SDS011;26823;42.662;23.352;2024-03-17T11:05:27;4.47;;;3.28;;
41077;SDS011;26823;42.662;23.352;2024-03-17T11:07:58;4.63;;;3.55;;
41077;SDS011;26823;42.662;23.352;2024-03-17T11:10:28;2.72;;;2.42;;
41077;SDS011;26823;42.662;23.352;2024-03-17T11:12:58;3.28;;;2.47;;
41077;SDS011;26823;42.662;23.352;2024-03-17T11:17:50;5.35;;;3.80;;
41077;SDS011;26823;42.662;23.352;2024-03-17T11:22:51;5.00;;;4.18;;
41077;SDS011;26823;42.662;23.352;2024-03-17T11:28:03;5.70;;;4.30;;
41077;SDS011;26823;42.662;23.352;2024-03-17T11:33:52;4.28;;;3.85;;
41077;SDS011;26823;42.662;23.352;2024-03-17T11:41:34;12.25;;;4.70;;
41077;SDS011;26823;42.662;23.352;2024-03-17T11:46:53;5.47;;;4.63;;
41077;SDS011;26823;42.662;23.352;2024-03-17T11:49:27;5.33;;;3.87;;
41077;SDS011;26823;42.662;23.352;2024-03-17T11:51:55;4.10;;;3.70;;
41077;SDS011;26823;42.662;23.352;2024-03-17T11:54:22;5.15;;;3.88;;
41077;SDS011;26823;42.662;23.352;2024-03-17T11:56:52;4.05;;;3.65;;
41077;SDS011;26823;42.662;23.352;2024-03-17T11:59:19;3.83;;;3.22;;
41077;SDS011;26823;42.662;23.352;2024-03-17T12:01:49;4.80;;;3.22;;
41077;SDS011;26823;42.662;23.352;2024-03-17T12:04:15;3.40;;;3.10;;
41077;SDS011;26823;42.662;23.352;2024-03-17T12:11:45;4.97;;;4.07;;
41077;SDS011;26823;42.662;23.352;2024-03-17T12:14:15;5.10;;;3.78;;
41077;SDS011;26823;42.662;23.352;2024-03-17T12:16:48;8.40;;;4.40;;
41077;SDS011;26823;42.662;23.352;2024-03-17T12:19:16;4.97;;;3.92;;
41077;SDS011;26823;42.662;23.352;2024-03-17T12:21:46;3.50;;;3.10;;
41077;SDS011;26823;42.662;23.352;2024-03-17T12:24:15;6.32;;;3.80;;
41077;SDS011;26823;42.662;23.352;2024-03-17T12:26:44;5.55;;;5.05;;
41077;SDS011;26823;42.662;23.352;2024-03-17T12:29:25;5.55;;;3.78;;
41077;SDS011;26823;42.662;23.352;2024-03-17T12:32:00;4.55;;;3.70;;
41077;SDS011;26823;42.662;23.352;2024-03-17T12:34:33;4.82;;;4.13;;
41077;SDS011;26823;42.662;23.352;2024-03-17T12:37:02;4.30;;;3.90;;
41077;SDS011;26823;42.662;23.352;2024-03-17T12:39:30;4.75;;;3.63;;
41077;SDS011;26823;42.662;23.352;2024-03-17T12:44:32;4.95;;;3.80;;
41077;SDS011;26823;42.662;23.352;2024-03-17T12:46:59;4.28;;;3.90;;
41077;SDS011;26823;42.662;23.352;2024-03-17T12:49:26;6.43;;;3.80;;
41077;SDS011;26823;42.662;23.352;2024-03-17T12:51:52;6.57;;;4.05;;
41077;SDS011;26823;42.662;23.352;2024-03-17T12:54:22;4.72;;;4.25;;
41077;SDS011;26823;42.662;23.352;2024-03-17T12:56:50;6.25;;;3.65;;
41077;SDS011;26823;42.662;23.352;2024-03-17T12:59:54;5.47;;;4.20;;
41077;SDS011;26823;42.662;23.352;2024-03-17T13:02:41;4.78;;;4.10;;
41077;SDS011;26823;42.662;23.352;2024-03-17T13:07:42;5.90;;;4.80;;
41077;SDS011;26823;42.662;23.352;2024-03-17T13:10:08;6.25;;;4.65;;
41077;SDS011;26823;42.662;23.352;2024-03-17T13:12:35;5.28;;;4.78;;
41077;SDS011;26823;42.662;23.352;2024-03-17T13:15:02;4.80;;;4.35;;
41077;SDS011;26823;42.662;23.352;2024-03-17T13:17:28;5.80;;;4.63;;
41077;SDS011;26823;42.662;23.352;2024-03-17T13:19:59;8.13;;;4.78;;
41077;SDS011;26823;42.662;23.352;2024-03-17T13:22:26;6.68;;;4.75;;
41077;SDS011;26823;42.662;23.352;2024-03-17T13:24:52;5.70;;;5.00;;
41077;SDS011;26823;42.662;23.352;2024-03-17T13:27:17;6.82;;;5.45;;
41077;SDS011;26823;42.662;23.352;2024-03-17T13:29:47;5.65;;;4.85;;
41077;SDS011;26823;42.662;23.352;2024-03-17T13:32:12;8.82;;;5.18;;
41077;SDS011;26823;42.662;23.352;2024-03-17T13:34:38;6.90;;;6.20;;
41077;SDS011;26823;42.662;23.352;2024-03-17T13:37:03;36.28;;;20.27;;
41077;SDS011;26823;42.662;23.352;2024-03-17T13:39:30;13.02;;;7.38;;
41077;SDS011;26823;42.662;23.352;2024-03-17T13:41:57;8.52;;;6.10;;
41077;SDS011;26823;42.662;23.352;2024-03-17T13:44:28;9.30;;;6.10;;
41077;SDS011;26823;42.662;23.352;2024-03-17T13:46:57;9.00;;;5.97;;
41077;SDS011;26823;42.662;23.352;2024-03-17T13:49:23;10.07;;;6.30;;
41077;SDS011;26823;42.662;23.352;2024-03-17T13:51:49;23.83;;;12.38;;
41077;SDS011;26823;42.662;23.352;2024-03-17T13:54:15;9.20;;;5.93;;
41077;SDS011;26823;42.662;23.352;2024-03-17T13:56:40;8.77;;;5.88;;
41077;SDS011;26823;42.662;23.352;2024-03-17T13:59:06;7.00;;;6.13;;
41077;SDS011;26823;42.662;23.352;2024-03-17T14:01:32;8.02;;;6.43;;
41077;SDS011;26823;42.662;23.352;2024-03-17T14:03:58;8.30;;;6.45;;
41077;SDS011;26823;42.662;23.352;2024-03-17T14:06:23;8.32;;;6.68;;
41077;SDS011;26823;42.662;23.352;2024-03-17T14:08:49;9.05;;;6.00;;
41077;SDS011;26823;42.662;23.352;2024-03-17T14:11:15;27.25;;;16.67;;
41077;SDS011;26823;42.662;23.352;2024-03-17T14:13:40;13.68;;;8.02;;
41077;SDS011;26823;42.662;23.352;2024-03-17T14:16:05;31.00;;;16.30;;
41077;SDS011;26823;42.662;23.352;2024-03-17T14:18:31;9.40;;;6.97;;
41077;SDS011;26823;42.662;23.352;2024-03-17T14:20:58;7.93;;;5.78;;
41077;SDS011;26823;42.662;23.352;2024-03-17T14:23:23;6.85;;;5.88;;
41077;SDS011;26823;42.662;23.352;2024-03-17T14:25:50;9.00;;;6.25;;
41077;SDS011;26823;42.662;23.352;2024-03-17T14:28:15;7.93;;;6.13;;
41077;SDS011;26823;42.662;23.352;2024-03-17T14:30:41;9.80;;;8.13;;
41077;SDS011;26823;42.662;23.352;2024-03-17T14:33:06;10.48;;;7.05;;
41077;SDS011;26823;42.662;23.352;2024-03-17T14:35:33;8.05;;;5.90;;
41077;SDS011;26823;42.662;23.352;2024-03-17T14:37:58;15.50;;;10.73;;
41077;SDS011;26823;42.662;23.352;2024-03-17T14:40:24;9.88;;;7.40;;
41077;SDS011;26823;42.662;23.352;2024-03-17T14:42:53;18.52;;;10.32;;
41077;SDS011;26823;42.662;23.352;2024-03-17T14:45:20;10.45;;;6.32;;
41077;SDS011;26823;42.662;23.352;2024-03-17T14:47:48;8.10;;;6.13;;
41077;SDS011;26823;42.662;23.352;2024-03-17T14:50:14;9.13;;;5.90;;
41077;SDS011;26823;42.662;23.352;2024-03-17T14:52:41;7.32;;;5.20;;